sensor_id;sensor_type;location;lat;lon;timestamp;P1;durP1;ratioP1;P2;durP2;ratioP2
17763;SDS011;22245;52.832;13.816;2022-12-18T00:00:57;36.07;;;13.70;;
17763;SDS011;22245;52.832;13.816;2022-12-18T00:04:20;35.00;;;14.13;;
17763;SDS011;22245;52.832;13.816;2022-12-18T00:07:44;38.33;;;14.20;;
17763;SDS011;22245;52.832;13.816;2022-12-18T00:11:07;41.73;;;14.80;;
17763;SDS011;22245;52.832;13.816;2022-12-18T00:14:30;39.70;;;13.80;;
17763;SDS011;22245;52.832;13.816;2022-12-18T00:17:51;36.70;;;13.70;;
17763;SDS011;22245;52.832;13.816;2022-12-18T00:21:13;38.40;;;13.53;;
17763;SDS011;22245;52.832;13.816;2022-12-18T00:24:36;40.90;;;14.70;;
17763;SDS011;22245;52.832;13.816;2022-12-18T00:27:58;36.13;;;14.23;;
17763;SDS011;22245;52.832;13.816;2022-12-18T00:31:21;37.00;;;13.73;;
17763;SDS011;22245;52.832;13.816;2022-12-18T00:34:45;38.10;;;13.10;;
17763;SDS011;22245;52.832;13.816;2022-12-18T00:38:08;29.53;;;12.10;;
17763;SDS011;22245;52.832;13.816;2022-12-18T00:41:31;29.87;;;12.03;;
17763;SDS011;22245;52.832;13.816;2022-12-18T00:45:10;31.63;;;12.60;;
17763;SDS011;22245;52.832;13.816;2022-12-18T00:48:32;32.03;;;12.53;;
17763;SDS011;22245;52.832;13.816;2022-12-18T00:51:57;29.63;;;11.37;;
17763;SDS011;22245;52.832;13.816;2022-12-18T00:55:18;31.20;;;10.93;;
17763;SDS011;22245;52.832;13.816;2022-12-18T00:58:42;31.17;;;12.00;;
17763;SDS011;22245;52.832;13.816;2022-12-18T01:02:03;29.30;;;11.23;;
17763;SDS011;22245;52.832;13.816;2022-12-18T01:05:25;29.37;;;10.93;;
17763;SDS011;22245;52.832;13.816;2022-12-18T01:08:47;33.83;;;12.97;;
17763;SDS011;22245;52.832;13.816;2022-12-18T01:12:08;32.23;;;11.53;;
17763;SDS011;22245;52.832;13.816;2022-12-18T01:15:32;32.33;;;11.83;;
17763;SDS011;22245;52.832;13.816;2022-12-18T01:18:54;34.27;;;12.90;;
17763;SDS011;22245;52.832;13.816;2022-12-18T01:22:16;33.67;;;13.23;;
17763;SDS011;22245;52.832;13.816;2022-12-18T01:25:38;37.73;;;13.93;;
17763;SDS011;22245;52.832;13.816;2022-12-18T01:29:02;32.03;;;12.03;;
17763;SDS011;22245;52.832;13.816;2022-12-18T01:32:25;31.37;;;11.80;;
17763;SDS011;22245;52.832;13.816;2022-12-18T01:35:46;31.93;;;11.97;;
17763;SDS011;22245;52.832;13.816;2022-12-18T01:39:10;27.40;;;11.30;;
17763;SDS011;22245;52.832;13.816;2022-12-18T01:42:34;27.00;;;10.90;;
17763;SDS011;22245;52.832;13.816;2022-12-18T01:45:57;29.67;;;11.60;;
17763;SDS011;22245;52.832;13.816;2022-12-18T01:49:21;25.93;;;11.13;;
17763;SDS011;22245;52.832;13.816;2022-12-18T01:52:44;26.70;;;10.93;;
17763;SDS011;22245;52.832;13.816;2022-12-18T01:56:11;31.73;;;12.30;;
17763;SDS011;22245;52.832;13.816;2022-12-18T01:59:34;34.20;;;13.07;;
17763;SDS011;22245;52.832;13.816;2022-12-18T02:02:58;31.83;;;12.90;;
17763;SDS011;22245;52.832;13.816;2022-12-18T02:06:24;34.90;;;11.83;;
17763;SDS011;22245;52.832;13.816;2022-12-18T02:09:55;27.70;;;11.40;;
17763;SDS011;22245;52.832;13.816;2022-12-18T02:13:24;30.93;;;12.40;;
17763;SDS011;22245;52.832;13.816;2022-12-18T02:16:52;30.30;;;11.63;;
17763;SDS011;22245;52.832;13.816;2022-12-18T02:20:20;33.33;;;12.30;;
17763;SDS011;22245;52.832;13.816;2022-12-18T02:23:50;33.03;;;13.17;;
17763;SDS011;22245;52.832;13.816;2022-12-18T02:27:19;33.30;;;12.83;;
17763;SDS011;22245;52.832;13.816;2022-12-18T02:30:42;33.57;;;13.43;;
17763;SDS011;22245;52.832;13.816;2022-12-18T02:34:06;34.67;;;12.70;;
17763;SDS011;22245;52.832;13.816;2022-12-18T02:37:31;36.17;;;13.17;;
17763;SDS011;22245;52.832;13.816;2022-12-18T02:40:58;34.33;;;14.23;;
17763;SDS011;22245;52.832;13.816;2022-12-18T02:44:22;36.07;;;13.57;;
17763;SDS011;22245;52.832;13.816;2022-12-18T02:47:46;37.40;;;14.07;;
17763;SDS011;22245;52.832;13.816;2022-12-18T02:51:12;39.33;;;13.77;;
17763;SDS011;22245;52.832;13.816;2022-12-18T02:54:44;41.07;;;14.47;;
17763;SDS011;22245;52.832;13.816;2022-12-18T02:58:18;35.40;;;14.10;;
17763;SDS011;22245;52.832;13.816;2022-12-18T03:01:50;38.77;;;14.17;;
17763;SDS011;22245;52.832;13.816;2022-12-18T03:05:16;41.60;;;15.17;;
17763;SDS011;22245;52.832;13.816;2022-12-18T03:08:42;42.97;;;14.67;;
17763;SDS011;22245;52.832;13.816;2022-12-18T03:12:09;39.50;;;13.93;;
17763;SDS011;22245;52.832;13.816;2022-12-18T03:15:49;37.83;;;14.77;;
17763;SDS011;22245;52.832;13.816;2022-12-18T03:19:16;39.63;;;15.10;;
17763;SDS011;22245;52.832;13.816;2022-12-18T03:22:43;40.33;;;14.40;;
17763;SDS011;22245;52.832;13.816;2022-12-18T03:26:10;41.50;;;15.03;;
17763;SDS011;22245;52.832;13.816;2022-12-18T03:29:37;46.70;;;14.57;;
17763;SDS011;22245;52.832;13.816;2022-12-18T03:33:07;46.80;;;15.67;;
17763;SDS011;22245;52.832;13.816;2022-12-18T03:36:37;49.33;;;17.30;;
17763;SDS011;22245;52.832;13.816;2022-12-18T03:39:59;50.40;;;17.03;;
17763;SDS011;22245;52.832;13.816;2022-12-18T03:43:26;48.73;;;16.20;;
17763;SDS011;22245;52.832;13.816;2022-12-18T03:46:58;45.00;;;15.33;;
17763;SDS011;22245;52.832;13.816;2022-12-18T03:50:29;46.93;;;15.37;;
17763;SDS011;22245;52.832;13.816;2022-12-18T03:54:01;40.60;;;14.03;;
17763;SDS011;22245;52.832;13.816;2022-12-18T03:57:31;41.47;;;13.90;;
17763;SDS011;22245;52.832;13.816;2022-12-18T04:00:56;41.87;;;14.03;;
17763;SDS011;22245;52.832;13.816;2022-12-18T04:04:22;51.00;;;16.60;;
17763;SDS011;22245;52.832;13.816;2022-12-18T04:07:47;44.17;;;14.53;;
17763;SDS011;22245;52.832;13.816;2022-12-18T04:11:11;47.00;;;15.63;;
17763;SDS011;22245;52.832;13.816;2022-12-18T04:14:33;43.10;;;15.83;;
17763;SDS011;22245;52.832;13.816;2022-12-18T04:17:57;46.23;;;16.00;;
17763;SDS011;22245;52.832;13.816;2022-12-18T04:21:25;45.27;;;15.83;;
17763;SDS011;22245;52.832;13.816;2022-12-18T04:24:46;36.93;;;13.10;;
17763;SDS011;22245;52.832;13.816;2022-12-18T04:28:18;40.20;;;13.80;;
17763;SDS011;22245;52.832;13.816;2022-12-18T04:31:41;35.77;;;12.70;;
17763;SDS011;22245;52.832;13.816;2022-12-18T04:35:04;35.83;;;12.33;;
17763;SDS011;22245;52.832;13.816;2022-12-18T04:38:31;36.20;;;13.70;;
17763;SDS011;22245;52.832;13.816;2022-12-18T04:41:59;30.07;;;11.57;;
17763;SDS011;22245;52.832;13.816;2022-12-18T04:45:22;34.63;;;13.07;;
17763;SDS011;22245;52.832;13.816;2022-12-18T04:48:45;28.43;;;10.77;;
17763;SDS011;22245;52.832;13.816;2022-12-18T04:52:07;29.70;;;11.47;;
17763;SDS011;22245;52.832;13.816;2022-12-18T04:55:29;30.87;;;12.50;;
17763;SDS011;22245;52.832;13.816;2022-12-18T04:58:51;37.17;;;12.27;;
17763;SDS011;22245;52.832;13.816;2022-12-18T05:02:14;33.57;;;12.67;;
17763;SDS011;22245;52.832;13.816;2022-12-18T05:05:35;33.67;;;12.63;;
17763;SDS011;22245;52.832;13.816;2022-12-18T05:08:57;34.03;;;11.73;;
17763;SDS011;22245;52.832;13.816;2022-12-18T05:12:19;26.43;;;10.43;;
17763;SDS011;22245;52.832;13.816;2022-12-18T05:15:41;25.87;;;9.53;;
17763;SDS011;22245;52.832;13.816;2022-12-18T05:19:04;24.57;;;10.30;;
17763;SDS011;22245;52.832;13.816;2022-12-18T05:22:26;27.27;;;9.77;;
17763;SDS011;22245;52.832;13.816;2022-12-18T05:25:50;22.63;;;9.40;;
17763;SDS011;22245;52.832;13.816;2022-12-18T05:29:12;26.93;;;10.60;;
17763;SDS011;22245;52.832;13.816;2022-12-18T05:32:34;25.53;;;10.70;;
17763;SDS011;22245;52.832;13.816;2022-12-18T05:35:58;26.03;;;10.00;;
17763;SDS011;22245;52.832;13.816;2022-12-18T05:39:24;24.53;;;10.00;;
17763;SDS011;22245;52.832;13.816;2022-12-18T05:42:45;23.73;;;9.37;;
17763;SDS011;22245;52.832;13.816;2022-12-18T05:46:08;24.63;;;9.13;;
17763;SDS011;22245;52.832;13.816;2022-12-18T05:49:33;24.60;;;9.17;;
17763;SDS011;22245;52.832;13.816;2022-12-18T05:52:56;23.63;;;10.23;;
17763;SDS011;22245;52.832;13.816;2022-12-18T05:56:18;23.83;;;9.33;;
17763;SDS011;22245;52.832;13.816;2022-12-18T05:59:41;22.70;;;8.90;;
17763;SDS011;22245;52.832;13.816;2022-12-18T06:03:03;24.90;;;9.60;;
17763;SDS011;22245;52.832;13.816;2022-12-18T06:06:25;26.73;;;9.97;;
17763;SDS011;22245;52.832;13.816;2022-12-18T06:09:49;29.80;;;10.50;;
17763;SDS011;22245;52.832;13.816;2022-12-18T06:13:11;25.90;;;10.97;;
17763;SDS011;22245;52.832;13.816;2022-12-18T06:16:33;27.47;;;10.97;;
17763;SDS011;22245;52.832;13.816;2022-12-18T06:19:54;32.53;;;11.63;;
17763;SDS011;22245;52.832;13.816;2022-12-18T06:23:16;27.83;;;11.33;;
17763;SDS011;22245;52.832;13.816;2022-12-18T06:26:40;28.00;;;10.53;;
17763;SDS011;22245;52.832;13.816;2022-12-18T06:30:01;27.73;;;10.70;;
17763;SDS011;22245;52.832;13.816;2022-12-18T06:33:25;28.23;;;9.97;;
17763;SDS011;22245;52.832;13.816;2022-12-18T06:36:47;31.90;;;10.67;;
17763;SDS011;22245;52.832;13.816;2022-12-18T06:40:09;28.30;;;10.33;;
17763;SDS011;22245;52.832;13.816;2022-12-18T06:43:32;27.23;;;10.70;;
17763;SDS011;22245;52.832;13.816;2022-12-18T06:46:54;25.03;;;9.87;;
17763;SDS011;22245;52.832;13.816;2022-12-18T06:50:16;27.30;;;10.23;;
17763;SDS011;22245;52.832;13.816;2022-12-18T06:53:37;27.77;;;11.00;;
17763;SDS011;22245;52.832;13.816;2022-12-18T06:57:00;28.60;;;11.97;;
17763;SDS011;22245;52.832;13.816;2022-12-18T07:00:23;28.00;;;11.10;;
17763;SDS011;22245;52.832;13.816;2022-12-18T07:03:45;29.40;;;11.90;;
17763;SDS011;22245;52.832;13.816;2022-12-18T07:07:07;30.47;;;11.77;;
17763;SDS011;22245;52.832;13.816;2022-12-18T07:10:29;30.37;;;10.40;;
17763;SDS011;22245;52.832;13.816;2022-12-18T07:13:50;33.87;;;11.57;;
17763;SDS011;22245;52.832;13.816;2022-12-18T07:17:16;30.17;;;10.80;;
17763;SDS011;22245;52.832;13.816;2022-12-18T07:20:37;29.70;;;11.07;;
17763;SDS011;22245;52.832;13.816;2022-12-18T07:23:59;26.70;;;11.10;;
17763;SDS011;22245;52.832;13.816;2022-12-18T07:27:21;26.93;;;10.93;;
17763;SDS011;22245;52.832;13.816;2022-12-18T07:30:43;25.47;;;10.57;;
17763;SDS011;22245;52.832;13.816;2022-12-18T07:34:09;27.87;;;10.70;;
17763;SDS011;22245;52.832;13.816;2022-12-18T07:37:31;27.07;;;10.50;;
17763;SDS011;22245;52.832;13.816;2022-12-18T07:40:53;29.10;;;10.07;;
17763;SDS011;22245;52.832;13.816;2022-12-18T07:44:14;29.87;;;10.23;;
17763;SDS011;22245;52.832;13.816;2022-12-18T07:47:36;31.50;;;10.93;;
17763;SDS011;22245;52.832;13.816;2022-12-18T07:50:59;26.73;;;11.30;;
17763;SDS011;22245;52.832;13.816;2022-12-18T07:54:20;29.67;;;10.83;;
17763;SDS011;22245;52.832;13.816;2022-12-18T07:57:42;28.57;;;11.07;;
17763;SDS011;22245;52.832;13.816;2022-12-18T08:01:18;30.10;;;11.23;;
17763;SDS011;22245;52.832;13.816;2022-12-18T08:04:40;28.63;;;11.70;;
17763;SDS011;22245;52.832;13.816;2022-12-18T08:08:04;29.43;;;10.63;;
17763;SDS011;22245;52.832;13.816;2022-12-18T08:11:26;27.90;;;10.37;;
17763;SDS011;22245;52.832;13.816;2022-12-18T08:14:49;31.57;;;11.83;;
17763;SDS011;22245;52.832;13.816;2022-12-18T08:18:11;25.23;;;9.03;;
17763;SDS011;22245;52.832;13.816;2022-12-18T08:21:33;26.30;;;10.30;;
17763;SDS011;22245;52.832;13.816;2022-12-18T08:24:57;29.63;;;10.33;;
17763;SDS011;22245;52.832;13.816;2022-12-18T08:28:18;27.17;;;9.80;;
17763;SDS011;22245;52.832;13.816;2022-12-18T08:31:40;27.27;;;10.33;;
17763;SDS011;22245;52.832;13.816;2022-12-18T08:35:02;22.23;;;9.57;;
17763;SDS011;22245;52.832;13.816;2022-12-18T08:38:24;23.50;;;9.97;;
17763;SDS011;22245;52.832;13.816;2022-12-18T08:41:47;21.33;;;9.03;;
17763;SDS011;22245;52.832;13.816;2022-12-18T08:45:29;25.57;;;9.07;;
17763;SDS011;22245;52.832;13.816;2022-12-18T08:48:50;24.83;;;9.43;;
17763;SDS011;22245;52.832;13.816;2022-12-18T08:52:13;23.17;;;8.93;;
17763;SDS011;22245;52.832;13.816;2022-12-18T08:55:35;25.60;;;9.23;;
17763;SDS011;22245;52.832;13.816;2022-12-18T08:58:58;23.47;;;9.07;;
17763;SDS011;22245;52.832;13.816;2022-12-18T09:02:20;24.50;;;9.40;;
17763;SDS011;22245;52.832;13.816;2022-12-18T09:05:42;32.00;;;10.63;;
17763;SDS011;22245;52.832;13.816;2022-12-18T09:09:04;22.90;;;9.50;;
17763;SDS011;22245;52.832;13.816;2022-12-18T09:12:26;27.90;;;10.30;;
17763;SDS011;22245;52.832;13.816;2022-12-18T09:15:49;24.67;;;9.40;;
17763;SDS011;22245;52.832;13.816;2022-12-18T09:19:12;25.27;;;9.97;;
17763;SDS011;22245;52.832;13.816;2022-12-18T09:22:34;26.27;;;9.90;;
17763;SDS011;22245;52.832;13.816;2022-12-18T09:25:58;26.93;;;10.43;;
17763;SDS011;22245;52.832;13.816;2022-12-18T09:29:20;24.30;;;9.60;;
17763;SDS011;22245;52.832;13.816;2022-12-18T09:32:43;26.23;;;10.13;;
17763;SDS011;22245;52.832;13.816;2022-12-18T09:36:05;27.17;;;9.63;;
17763;SDS011;22245;52.832;13.816;2022-12-18T09:39:28;25.13;;;10.07;;
17763;SDS011;22245;52.832;13.816;2022-12-18T09:42:51;26.37;;;10.13;;
17763;SDS011;22245;52.832;13.816;2022-12-18T09:46:17;27.23;;;10.17;;
17763;SDS011;22245;52.832;13.816;2022-12-18T09:49:47;23.00;;;9.47;;
17763;SDS011;22245;52.832;13.816;2022-12-18T09:53:13;28.13;;;9.87;;
17763;SDS011;22245;52.832;13.816;2022-12-18T09:56:39;26.80;;;10.43;;
17763;SDS011;22245;52.832;13.816;2022-12-18T10:00:04;27.80;;;10.53;;
17763;SDS011;22245;52.832;13.816;2022-12-18T10:03:33;26.57;;;10.37;;
17763;SDS011;22245;52.832;13.816;2022-12-18T10:06:58;28.83;;;10.53;;
17763;SDS011;22245;52.832;13.816;2022-12-18T10:10:33;29.03;;;10.60;;
17763;SDS011;22245;52.832;13.816;2022-12-18T10:14:00;26.97;;;10.00;;
17763;SDS011;22245;52.832;13.816;2022-12-18T10:17:33;29.97;;;9.80;;
17763;SDS011;22245;52.832;13.816;2022-12-18T10:21:03;26.03;;;10.33;;
17763;SDS011;22245;52.832;13.816;2022-12-18T10:24:32;22.00;;;8.87;;
17763;SDS011;22245;52.832;13.816;2022-12-18T10:28:00;25.33;;;9.83;;
17763;SDS011;22245;52.832;13.816;2022-12-18T10:31:31;21.13;;;8.93;;
17763;SDS011;22245;52.832;13.816;2022-12-18T10:34:54;30.50;;;11.00;;
17763;SDS011;22245;52.832;13.816;2022-12-18T10:38:20;24.40;;;10.30;;
17763;SDS011;22245;52.832;13.816;2022-12-18T10:41:45;25.83;;;10.63;;
17763;SDS011;22245;52.832;13.816;2022-12-18T10:45:08;29.63;;;10.60;;
17763;SDS011;22245;52.832;13.816;2022-12-18T10:48:31;27.13;;;11.27;;
17763;SDS011;22245;52.832;13.816;2022-12-18T10:52:07;26.53;;;10.27;;
17763;SDS011;22245;52.832;13.816;2022-12-18T10:55:37;26.27;;;10.20;;
17763;SDS011;22245;52.832;13.816;2022-12-18T10:59:03;26.77;;;10.40;;
17763;SDS011;22245;52.832;13.816;2022-12-18T11:02:26;25.27;;;10.47;;
17763;SDS011;22245;52.832;13.816;2022-12-18T11:05:50;24.33;;;10.40;;
17763;SDS011;22245;52.832;13.816;2022-12-18T11:09:24;27.63;;;11.60;;
17763;SDS011;22245;52.832;13.816;2022-12-18T11:12:47;26.97;;;10.57;;
17763;SDS011;22245;52.832;13.816;2022-12-18T11:16:18;27.07;;;10.53;;
17763;SDS011;22245;52.832;13.816;2022-12-18T11:19:41;25.47;;;10.43;;
17763;SDS011;22245;52.832;13.816;2022-12-18T11:23:03;28.77;;;10.33;;
17763;SDS011;22245;52.832;13.816;2022-12-18T11:26:33;26.80;;;9.70;;
17763;SDS011;22245;52.832;13.816;2022-12-18T11:30:07;23.13;;;10.00;;
17763;SDS011;22245;52.832;13.816;2022-12-18T11:33:31;24.53;;;10.63;;
17763;SDS011;22245;52.832;13.816;2022-12-18T11:36:53;26.27;;;10.77;;
17763;SDS011;22245;52.832;13.816;2022-12-18T11:40:16;30.60;;;11.10;;
17763;SDS011;22245;52.832;13.816;2022-12-18T11:43:42;26.27;;;11.30;;
17763;SDS011;22245;52.832;13.816;2022-12-18T11:47:10;26.00;;;10.37;;
17763;SDS011;22245;52.832;13.816;2022-12-18T11:50:43;26.57;;;10.33;;
17763;SDS011;22245;52.832;13.816;2022-12-18T11:54:10;24.80;;;9.43;;
17763;SDS011;22245;52.832;13.816;2022-12-18T11:57:35;24.57;;;9.73;;
17763;SDS011;22245;52.832;13.816;2022-12-18T12:01:05;29.93;;;11.97;;
17763;SDS011;22245;52.832;13.816;2022-12-18T12:08:24;28.63;;;10.63;;
17763;SDS011;22245;52.832;13.816;2022-12-18T12:12:01;28.37;;;10.83;;
17763;SDS011;22245;52.832;13.816;2022-12-18T12:15:39;29.50;;;11.63;;
17763;SDS011;22245;52.832;13.816;2022-12-18T12:19:12;28.07;;;11.13;;
17763;SDS011;22245;52.832;13.816;2022-12-18T12:22:46;25.53;;;10.47;;
17763;SDS011;22245;52.832;13.816;2022-12-18T12:26:16;24.47;;;10.00;;
17763;SDS011;22245;52.832;13.816;2022-12-18T12:29:50;27.57;;;10.73;;
17763;SDS011;22245;52.832;13.816;2022-12-18T12:33:25;28.63;;;11.63;;
17763;SDS011;22245;52.832;13.816;2022-12-18T12:37:02;29.37;;;12.30;;
17763;SDS011;22245;52.832;13.816;2022-12-18T12:40:51;29.53;;;12.00;;
17763;SDS011;22245;52.832;13.816;2022-12-18T12:44:25;34.63;;;12.47;;
17763;SDS011;22245;52.832;13.816;2022-12-18T12:47:51;30.27;;;11.27;;
17763;SDS011;22245;52.832;13.816;2022-12-18T12:51:16;37.77;;;13.40;;
17763;SDS011;22245;52.832;13.816;2022-12-18T12:54:40;33.07;;;13.27;;
17763;SDS011;22245;52.832;13.816;2022-12-18T12:58:05;32.13;;;12.63;;
17763;SDS011;22245;52.832;13.816;2022-12-18T13:01:36;30.83;;;12.30;;
17763;SDS011;22245;52.832;13.816;2022-12-18T13:05:04;33.20;;;12.77;;
17763;SDS011;22245;52.832;13.816;2022-12-18T13:08:51;28.93;;;11.27;;
17763;SDS011;22245;52.832;13.816;2022-12-18T13:12:15;27.03;;;11.30;;
17763;SDS011;22245;52.832;13.816;2022-12-18T13:16:03;27.30;;;11.13;;
17763;SDS011;22245;52.832;13.816;2022-12-18T13:19:29;29.13;;;11.80;;
17763;SDS011;22245;52.832;13.816;2022-12-18T13:22:50;26.57;;;11.63;;
17763;SDS011;22245;52.832;13.816;2022-12-18T13:26:28;25.77;;;10.97;;
17763;SDS011;22245;52.832;13.816;2022-12-18T13:29:51;25.03;;;10.93;;
17763;SDS011;22245;52.832;13.816;2022-12-18T13:37:45;27.20;;;11.20;;
17763;SDS011;22245;52.832;13.816;2022-12-18T13:41:23;29.23;;;11.27;;
17763;SDS011;22245;52.832;13.816;2022-12-18T13:44:48;26.47;;;11.60;;
17763;SDS011;22245;52.832;13.816;2022-12-18T13:48:18;26.77;;;11.53;;
17763;SDS011;22245;52.832;13.816;2022-12-18T13:51:42;31.23;;;12.50;;
17763;SDS011;22245;52.832;13.816;2022-12-18T13:55:15;28.87;;;11.43;;
17763;SDS011;22245;52.832;13.816;2022-12-18T13:58:40;24.87;;;10.70;;
17763;SDS011;22245;52.832;13.816;2022-12-18T14:02:07;26.07;;;11.13;;
17763;SDS011;22245;52.832;13.816;2022-12-18T14:05:34;25.70;;;10.33;;
17763;SDS011;22245;52.832;13.816;2022-12-18T14:09:02;23.17;;;10.07;;
17763;SDS011;22245;52.832;13.816;2022-12-18T14:12:30;24.67;;;10.47;;
17763;SDS011;22245;52.832;13.816;2022-12-18T14:16:11;31.90;;;11.50;;
17763;SDS011;22245;52.832;13.816;2022-12-18T14:19:36;30.13;;;10.80;;
17763;SDS011;22245;52.832;13.816;2022-12-18T14:23:02;24.97;;;9.87;;
17763;SDS011;22245;52.832;13.816;2022-12-18T14:26:24;26.53;;;10.47;;
17763;SDS011;22245;52.832;13.816;2022-12-18T14:29:51;23.77;;;9.93;;
17763;SDS011;22245;52.832;13.816;2022-12-18T14:33:13;26.30;;;9.67;;
17763;SDS011;22245;52.832;13.816;2022-12-18T14:36:36;29.03;;;11.53;;
17763;SDS011;22245;52.832;13.816;2022-12-18T14:40:01;31.20;;;11.13;;
17763;SDS011;22245;52.832;13.816;2022-12-18T14:43:31;26.33;;;10.67;;
17763;SDS011;22245;52.832;13.816;2022-12-18T14:46:56;25.77;;;10.77;;
17763;SDS011;22245;52.832;13.816;2022-12-18T14:50:17;26.90;;;10.60;;
17763;SDS011;22245;52.832;13.816;2022-12-18T14:53:40;27.27;;;11.90;;
17763;SDS011;22245;52.832;13.816;2022-12-18T14:57:14;23.47;;;9.67;;
17763;SDS011;22245;52.832;13.816;2022-12-18T15:00:42;29.80;;;10.50;;
17763;SDS011;22245;52.832;13.816;2022-12-18T15:04:19;22.57;;;9.97;;
17763;SDS011;22245;52.832;13.816;2022-12-18T15:07:47;26.20;;;10.90;;
17763;SDS011;22245;52.832;13.816;2022-12-18T15:11:25;30.53;;;10.00;;
17763;SDS011;22245;52.832;13.816;2022-12-18T15:15:05;22.13;;;9.40;;
17763;SDS011;22245;52.832;13.816;2022-12-18T15:18:47;24.77;;;10.73;;
17763;SDS011;22245;52.832;13.816;2022-12-18T15:22:23;27.67;;;12.00;;
17763;SDS011;22245;52.832;13.816;2022-12-18T15:25:47;28.47;;;11.37;;
17763;SDS011;22245;52.832;13.816;2022-12-18T15:29:15;27.53;;;11.00;;
17763;SDS011;22245;52.832;13.816;2022-12-18T15:32:43;27.20;;;11.10;;
17763;SDS011;22245;52.832;13.816;2022-12-18T15:36:08;26.07;;;9.97;;
17763;SDS011;22245;52.832;13.816;2022-12-18T15:39:33;29.20;;;10.90;;
17763;SDS011;22245;52.832;13.816;2022-12-18T15:42:56;31.53;;;11.23;;
17763;SDS011;22245;52.832;13.816;2022-12-18T15:46:34;28.33;;;10.40;;
17763;SDS011;22245;52.832;13.816;2022-12-18T15:49:56;20.70;;;9.07;;
17763;SDS011;22245;52.832;13.816;2022-12-18T15:53:18;26.90;;;9.90;;
17763;SDS011;22245;52.832;13.816;2022-12-18T15:56:41;23.40;;;9.83;;
17763;SDS011;22245;52.832;13.816;2022-12-18T16:00:20;31.80;;;11.40;;
17763;SDS011;22245;52.832;13.816;2022-12-18T16:03:42;26.83;;;12.03;;
17763;SDS011;22245;52.832;13.816;2022-12-18T16:07:04;36.93;;;13.77;;
17763;SDS011;22245;52.832;13.816;2022-12-18T16:10:40;28.53;;;11.90;;
17763;SDS011;22245;52.832;13.816;2022-12-18T16:14:03;25.57;;;11.00;;
17763;SDS011;22245;52.832;13.816;2022-12-18T16:17:27;33.27;;;12.40;;
17763;SDS011;22245;52.832;13.816;2022-12-18T16:20:49;27.17;;;10.80;;
17763;SDS011;22245;52.832;13.816;2022-12-18T16:24:13;28.23;;;11.50;;
17763;SDS011;22245;52.832;13.816;2022-12-18T16:27:36;29.63;;;11.63;;
17763;SDS011;22245;52.832;13.816;2022-12-18T16:30:59;32.83;;;11.37;;
17763;SDS011;22245;52.832;13.816;2022-12-18T16:34:21;29.13;;;11.40;;
17763;SDS011;22245;52.832;13.816;2022-12-18T16:37:48;29.77;;;12.53;;
17763;SDS011;22245;52.832;13.816;2022-12-18T16:41:14;30.73;;;11.73;;
17763;SDS011;22245;52.832;13.816;2022-12-18T16:44:55;27.90;;;11.87;;
17763;SDS011;22245;52.832;13.816;2022-12-18T16:48:18;30.43;;;12.03;;
17763;SDS011;22245;52.832;13.816;2022-12-18T16:51:39;30.63;;;12.00;;
17763;SDS011;22245;52.832;13.816;2022-12-18T16:55:01;27.73;;;11.90;;
17763;SDS011;22245;52.832;13.816;2022-12-18T16:58:23;28.73;;;11.47;;
17763;SDS011;22245;52.832;13.816;2022-12-18T17:01:44;32.93;;;13.07;;
17763;SDS011;22245;52.832;13.816;2022-12-18T17:05:09;30.67;;;13.10;;
17763;SDS011;22245;52.832;13.816;2022-12-18T17:08:30;27.57;;;11.67;;
17763;SDS011;22245;52.832;13.816;2022-12-18T17:11:52;31.93;;;13.47;;
17763;SDS011;22245;52.832;13.816;2022-12-18T17:15:14;23.93;;;10.73;;
17763;SDS011;22245;52.832;13.816;2022-12-18T17:18:37;27.93;;;12.00;;
17763;SDS011;22245;52.832;13.816;2022-12-18T17:22:00;30.00;;;11.40;;
17763;SDS011;22245;52.832;13.816;2022-12-18T17:25:21;27.20;;;11.43;;
17763;SDS011;22245;52.832;13.816;2022-12-18T17:28:44;25.77;;;10.70;;
17763;SDS011;22245;52.832;13.816;2022-12-18T17:32:06;29.60;;;12.57;;
17763;SDS011;22245;52.832;13.816;2022-12-18T17:35:28;27.17;;;11.63;;
17763;SDS011;22245;52.832;13.816;2022-12-18T17:38:52;25.43;;;11.87;;
17763;SDS011;22245;52.832;13.816;2022-12-18T17:42:14;30.93;;;13.20;;
17763;SDS011;22245;52.832;13.816;2022-12-18T17:45:36;28.43;;;12.30;;
17763;SDS011;22245;52.832;13.816;2022-12-18T17:48:58;27.53;;;12.47;;
17763;SDS011;22245;52.832;13.816;2022-12-18T17:52:22;28.10;;;12.37;;
17763;SDS011;22245;52.832;13.816;2022-12-18T17:55:53;26.87;;;12.57;;
17763;SDS011;22245;52.832;13.816;2022-12-18T17:59:15;32.53;;;13.00;;
17763;SDS011;22245;52.832;13.816;2022-12-18T18:02:37;34.07;;;14.23;;
17763;SDS011;22245;52.832;13.816;2022-12-18T18:06:00;34.73;;;14.63;;
17763;SDS011;22245;52.832;13.816;2022-12-18T18:09:22;31.93;;;13.97;;
17763;SDS011;22245;52.832;13.816;2022-12-18T18:12:45;32.50;;;13.27;;
17763;SDS011;22245;52.832;13.816;2022-12-18T18:16:34;29.07;;;12.67;;
17763;SDS011;22245;52.832;13.816;2022-12-18T18:19:58;32.13;;;13.53;;
17763;SDS011;22245;52.832;13.816;2022-12-18T18:23:20;30.80;;;13.07;;
17763;SDS011;22245;52.832;13.816;2022-12-18T18:26:42;32.30;;;13.53;;
17763;SDS011;22245;52.832;13.816;2022-12-18T18:30:07;33.73;;;14.67;;
17763;SDS011;22245;52.832;13.816;2022-12-18T18:33:30;31.83;;;13.30;;
17763;SDS011;22245;52.832;13.816;2022-12-18T18:36:51;38.57;;;15.40;;
17763;SDS011;22245;52.832;13.816;2022-12-18T18:40:13;33.23;;;14.67;;
17763;SDS011;22245;52.832;13.816;2022-12-18T18:43:35;34.63;;;14.37;;
17763;SDS011;22245;52.832;13.816;2022-12-18T18:46:59;34.47;;;14.43;;
17763;SDS011;22245;52.832;13.816;2022-12-18T18:50:23;32.90;;;14.40;;
17763;SDS011;22245;52.832;13.816;2022-12-18T18:53:46;38.37;;;14.33;;
17763;SDS011;22245;52.832;13.816;2022-12-18T18:57:08;31.23;;;14.20;;
17763;SDS011;22245;52.832;13.816;2022-12-18T19:00:39;36.03;;;15.20;;
17763;SDS011;22245;52.832;13.816;2022-12-18T19:04:03;37.67;;;15.63;;
17763;SDS011;22245;52.832;13.816;2022-12-18T19:07:25;37.30;;;14.23;;
17763;SDS011;22245;52.832;13.816;2022-12-18T19:10:50;35.70;;;15.33;;
17763;SDS011;22245;52.832;13.816;2022-12-18T19:14:17;36.83;;;15.43;;
17763;SDS011;22245;52.832;13.816;2022-12-18T19:17:39;43.03;;;16.63;;
17763;SDS011;22245;52.832;13.816;2022-12-18T19:21:05;36.10;;;16.07;;
17763;SDS011;22245;52.832;13.816;2022-12-18T19:24:26;36.33;;;14.87;;
17763;SDS011;22245;52.832;13.816;2022-12-18T19:27:48;43.37;;;16.97;;
17763;SDS011;22245;52.832;13.816;2022-12-18T19:31:10;44.33;;;16.70;;
17763;SDS011;22245;52.832;13.816;2022-12-18T19:34:35;44.33;;;17.17;;
17763;SDS011;22245;52.832;13.816;2022-12-18T19:37:58;44.57;;;16.90;;
17763;SDS011;22245;52.832;13.816;2022-12-18T19:41:19;38.47;;;16.33;;
17763;SDS011;22245;52.832;13.816;2022-12-18T19:44:41;52.47;;;19.80;;
17763;SDS011;22245;52.832;13.816;2022-12-18T19:48:05;50.70;;;18.70;;
17763;SDS011;22245;52.832;13.816;2022-12-18T19:51:29;46.30;;;19.73;;
17763;SDS011;22245;52.832;13.816;2022-12-18T19:54:53;39.90;;;17.93;;